Glidden, Iowa
Current Conditions -  °F | °C
As of 6:35 PM on Sunday 21 Dec 2014 (Local Time) from KCIN Reporting Station
Overcast Overcast  
Wind Chill: -1°   Ceiling: 500
Heat Index:   Visibility: 10mi
Dew Point:   Wind: 16mph
Humidity: 100%   Direction: 170°S
Pressure: 29.72"   Gusts: 23mph
Location:  42.06°N, 94.73°W
Report Text: KCIN 220035Z AUTO 17014G20KT 10SM OVC005 04/04 A2972 RMK AO2
Loading
Personal Weather Stations






























Interactive Weather Map New forecast layout! Learn more

10-Day Weather Forecast

Advertisements
Track Severe Weather on mobile